This is the latest recevied weather packets stored in our database for station/object M0OAB-1. If no packets are shown the sender has not sent any weather packets the latest 10 day(s).
| Time | Temp. | Humidity | Pressure | Rain* | Wind** | Luminosity | Snow |
|---|---|---|---|---|---|---|---|
| 1777452604 | 15.56° C | 41% | 1011 hPa | 0 mm | - | - | - |
| 1777451884 | 15.56° C | 41% | 1010.9 hPa | 0 mm | - | - | - |
| 1777451164 | 15.56° C | 45% | 1010.6 hPa | 0 mm | - | - | - |
| 1777450924 | 15.56° C | 45% | 1010.5 hPa | 0 mm | - | - | - |
| 1777449364 | 15° C | 48% | 1010.3 hPa | 0 mm | - | - | - |
| 1777448404 | 15° C | 50% | 1010.2 hPa | 0 mm | - | - | - |
| 1777447084 | 15° C | 52% | 1010.2 hPa | 0 mm | - | - | - |
| 1777446964 | 15° C | 53% | 1010.2 hPa | 0 mm | - | - | - |
| 1777446244 | 15° C | 57% | 1010.4 hPa | 0 mm | - | - | - |
| 1777445884 | 14.44° C | 60% | 1010.3 hPa | 0 mm | - | - | - |
| 1777445404 | 12.78° C | 62% | 1010.1 hPa | 0 mm | - | - | - |
| 1777444564 | 11.11° C | 70% | 1010.1 hPa | 0 mm | - | - | - |
| 1777443964 | 10° C | 71% | 1009.8 hPa | 0 mm | - | - | - |
| 1777442884 | 9.44° C | 73% | 1009.8 hPa | 0 mm | - | - | - |
| 1777442764 | 9.44° C | 74% | 1009.8 hPa | 0 mm | - | - | - |
| 1777442404 | 8.89° C | 74% | 1009.9 hPa | 0 mm | - | - | - |
| 1777442044 | 8.89° C | 75% | 1009.9 hPa | 0 mm | - | - | - |
| 1777440604 | 8.33° C | 77% | 1009.7 hPa | 0 mm | - | - | - |
| 1777440364 | 8.33° C | 77% | 1009.6 hPa | 0 mm | - | - | - |
| 1777440003 | 7.78° C | 78% | 1009.5 hPa | 0 mm | - | - | - |
| 1777439524 | 7.78° C | 78% | 1009.6 hPa | 0 mm | - | - | - |
| 1777438804 | 7.78° C | 78% | 1009.5 hPa | 0 mm | - | - | - |
| 1777437844 | 7.78° C | 79% | 1009.4 hPa | 0 mm | - | - | - |
| 1777436404 | 7.78° C | 79% | 1009.3 hPa | 0 mm | - | - | - |
| 1777436164 | 7.78° C | 79% | 1009.4 hPa | 0 mm | - | - | - |
* Rain latest hour (hover to see other rain measurements)
** Current wind speed in m/s (hover to see current wind gust speed)